Flight Track Log - Related Links

Times and Time Zones

All times are in EDT time to prevent confusion due to time zone crossing. See the ASQ5958 flight status page for this flight to view local times or setup timezone preferences in your user account.

Time Position Orientation Groundspeed Altitude Reporting Facility
EDT Latitude Longitude Course Direction KTS MPH feet Rate Location/Type
Mon 06:34:00 PM 41.7806 -87.7914 180° South 259 298 6,000  Level Chicago Center
Mon 06:35:00 PM 41.7066 -87.7347 157° South  Level FlightAware Approximate
Mon 06:36:04 PM 41.6425 -87.7281 157° South 274 315 10,600  Level Chicago Center
Mon 06:37:00 PM 41.4479 -87.5361 159° South  Level Estimated
Mon 06:37:06 PM 41.5717 -87.6758 151° Southeast 287 330 11,900  Level Chicago Center
Mon 06:38:00 PM 41.3588 -87.4750 173° South  Level Estimated
Mon 06:38:08 PM 41.4869 -87.6167 152° Southeast 337 388 12,600  Level Chicago Center
Mon 06:39:00 PM 41.2697 -87.4140 180° South  Level Estimated
Mon 06:39:10 PM 41.3697 -87.5644 162° South 377 434 14,100  Level Chicago Center
Mon 06:40:12 PM 41.2664 -87.5456 172° South 374 430 15,600 1,403 Climbing Chicago Center
Mon 06:41:14 PM 41.1628 -87.5247 171° South 376 433 17,000 1,306 Climbing Chicago Center
Mon 06:42:16 PM 41.0594 -87.4964 168° South 378 435 18,300 1,304 Climbing Chicago Center
Mon 06:43:55 PM 40.8917 -87.4514 169° South 383 441 20,500 1,481 Climbing Indianapolis Center
Mon 06:44:58 PM 40.7653 -87.4156 168° South 388 447 22,300 1,636 Climbing Indianapolis Center
Mon 06:45:23 PM 40.7236 -87.4083 173° South 390 449 22,900 1,517 Climbing Chicago Center
Mon 06:46:25 PM 40.6197 -87.3817 169° South 386 444 24,500 1,491 Climbing Chicago Center
Mon 06:48:04 PM 40.4553 -87.3328 167° South 376 433 26,900 1,342 Climbing Indianapolis Center
Mon 06:49:06 PM 40.3681 -87.2589 147° Southeast 377 434 28,100 1,241 Climbing Indianapolis Center
Mon 06:49:31 PM 40.3356 -87.2283 144° Southeast 376 433 28,700 1,597 Climbing Chicago Center
Mon 06:51:10 PM 40.1839 -87.0981 147° Southeast 362 417 31,400 1,565 Climbing Indianapolis Center
Mon 06:52:12 PM 40.0992 -87.0303 149° Southeast 361 415 32,900 455 Climbing Indianapolis Center
Mon 06:54:41 PM 39.8764 -86.8531 149° Southeast 405 466 33,000 161 Climbing Chicago Center
Mon 06:55:18 PM 39.8164 -86.8031 147° Southeast 419 482 33,400 1,152 Climbing Indianapolis Center
Mon 06:56:20 PM 39.6992 -86.7114 149° Southeast 414 476 34,900 774 Climbing Indianapolis Center
Mon 06:57:22 PM 39.6050 -86.6367 149° Southeast 405 466 35,000 32 Climbing Indianapolis Center
Mon 06:59:26 PM 39.4125 -86.4875 149° Southeast 410 472 35,000  Level Indianapolis Center
Mon 07:00:28 PM 39.2961 -86.3956 149° Southeast 413 475 35,000  Level Indianapolis Center
Mon 07:02:00 PM 39.1624 -86.2912 149° Southeast  Level FlightAware Approximate
Mon 07:02:32 PM 39.1303 -86.2239 149° Southeast 378 435 35,000  Level Indianapolis Center
Mon 07:04:00 PM 38.9875 -86.1555 149° Southeast  Level FlightAware Approximate
Mon 07:04:36 PM 38.9750 -86.0425 149° Southeast 382 440 35,000  Level Indianapolis Center
Mon 07:05:38 PM 38.8686 -85.9539 147° Southeast 391 450 35,000  Level Indianapolis Center
Mon 07:06:40 PM 38.7747 -85.8856 150° Southeast 381 438 35,000  Level Indianapolis Center
Mon 07:08:00 PM 38.6426 -85.8523 169° South  Level FlightAware Approximate
Mon 07:08:44 PM 38.5883 -85.7514 169° South 385 443 35,000  Level Indianapolis Center
Mon 07:09:46 PM 38.4919 -85.6817 150° Southeast 391 450 35,000  Level Indianapolis Center
Mon 07:10:48 PM 38.3967 -85.6136 151° Southeast 391 450 35,000  Level Indianapolis Center
Mon 07:13:00 PM 38.2019 -85.4900 153° Southeast  Level FlightAware Approximate
Mon 07:13:53 PM 38.0967 -85.3997 153° Southeast 386 444 35,000  Level Indianapolis Center
Mon 07:14:55 PM 38.0033 -85.3325 150° Southeast 384 442 34,700 -1,065 Descending Indianapolis Center
Mon 07:15:57 PM 37.9119 -85.2694 151° Southeast 374 430 32,800 -1,694 Descending Indianapolis Center
Mon 07:16:59 PM 37.8197 -85.2036 151° Southeast 371 427 31,200 -871 Descending Indianapolis Center
Mon 07:18:01 PM 37.7264 -85.1381 151° Southeast 382 440 31,000 -97 Descending Indianapolis Center
Mon 07:19:03 PM 37.6311 -85.0717 151° Southeast 390 449 31,000  Level Indianapolis Center
Mon 07:20:04 PM 37.5192 -84.9936 151° Southeast 395 455 31,000  Level Indianapolis Center
Mon 07:21:06 PM 37.4219 -84.9253 151° Southeast 399 459 31,000  Level Indianapolis Center
Mon 07:22:08 PM 37.3278 -84.8603 151° Southeast 390 449 31,000 -484 Level Indianapolis Center
Mon 07:24:12 PM 37.1386 -84.7289 151° Southeast 388 447 29,500 -1,038 Descending Indianapolis Center
Mon 07:25:13 PM 37.0306 -84.6547 151° Southeast 388 447 27,800 -1,561 Descending Indianapolis Center
Mon 07:26:15 PM 36.9333 -84.5881 151° Southeast 396 456 26,300 -1,984 Descending Indianapolis Center
Mon 07:27:17 PM 36.8364 -84.5222 151° Southeast 396 456 23,700 -2,846 Descending Indianapolis Center
Mon 07:29:10 PM 36.6667 -84.4114 152° Southeast 389 448 18,000 -2,983 Descending Atlanta Center
Mon 07:30:10 PM 36.5814 -84.3514 151° Southeast 370 426 15,100 -2,850 Descending Atlanta Center
Mon 07:31:10 PM 36.4939 -84.2944 152° Southeast 363 418 12,300 -2,000 Descending Atlanta Center
Mon 07:32:10 PM 36.4128 -84.2375 151° Southeast 345 397 11,100 -1,040 Descending Atlanta Center
Mon 07:32:25 PM 36.4003 -84.2261 144° Southeast 333 383 11,000 -78 Descending Indianapolis Center
Mon 07:33:27 PM 36.3017 -84.1611 152° Southeast 333 383 11,000 -57 Level Indianapolis Center
Mon 07:34:10 PM 36.2544 -84.1314 153° Southeast 334 384 10,900 -932 Descending Atlanta Center
Mon 07:35:10 PM 36.1897 -84.0903 153° Southeast 296 341 9,400 -1,700 Descending Atlanta Center
Mon 07:36:10 PM 36.1292 -84.0492 151° Southeast 267 307 7,500 -1,580 Descending Atlanta Center
Mon 07:38:35 PM 35.9878 -83.9511 151° Southeast 237 273 4,000 -1,200 Descending Indianapolis Center
Mon 07:39:10 PM 35.9561 -83.9311 153° Southeast 237 273 3,900 -505 Descending Atlanta Center
Mon 07:40:10 PM 35.9017 -83.9208 171° South 226 260 3,200 -800 Descending Atlanta Center
Mon 07:41:10 PM 35.8664 -83.9336 196° South 157 181 2,300 -850 Descending Atlanta Center
Mon 07:42:10 PM 35.8414 -83.9619 223° Southwest 137 158 1,500 -800 Descending Atlanta Center
Mon 07:44:00 PM 35.8000 -83.9833 219° Southwest  Level FlightAware Approximate

Login

Don't have an account? Register now (free) for customized features, flight alerts, and more!